sensor_id;sensor_type;location;lat;lon;timestamp;P1;durP1;ratioP1;P2;durP2;ratioP2
19889;SDS011;10107;51.198;6.824;2023-07-22T00:02:32;8.32;;;6.38;;
19889;SDS011;10107;51.198;6.824;2023-07-22T00:06:34;8.75;;;6.10;;
19889;SDS011;10107;51.198;6.824;2023-07-22T00:10:38;9.25;;;6.00;;
19889;SDS011;10107;51.198;6.824;2023-07-22T00:14:41;8.68;;;6.53;;
19889;SDS011;10107;51.198;6.824;2023-07-22T00:18:44;8.02;;;6.35;;
19889;SDS011;10107;51.198;6.824;2023-07-22T00:22:46;9.18;;;6.20;;
19889;SDS011;10107;51.198;6.824;2023-07-22T00:26:49;9.40;;;6.55;;
19889;SDS011;10107;51.198;6.824;2023-07-22T00:30:50;6.82;;;4.88;;
19889;SDS011;10107;51.198;6.824;2023-07-22T00:34:53;10.73;;;6.47;;
19889;SDS011;10107;51.198;6.824;2023-07-22T00:38:55;12.77;;;7.50;;
19889;SDS011;10107;51.198;6.824;2023-07-22T00:42:58;11.05;;;6.85;;
19889;SDS011;10107;51.198;6.824;2023-07-22T00:47:00;9.07;;;6.53;;
19889;SDS011;10107;51.198;6.824;2023-07-22T00:51:02;10.55;;;6.20;;
19889;SDS011;10107;51.198;6.824;2023-07-22T00:55:04;10.00;;;6.70;;
19889;SDS011;10107;51.198;6.824;2023-07-22T00:59:08;8.82;;;6.15;;
19889;SDS011;10107;51.198;6.824;2023-07-22T01:03:10;7.10;;;4.43;;
19889;SDS011;10107;51.198;6.824;2023-07-22T01:07:13;10.52;;;6.18;;
19889;SDS011;10107;51.198;6.824;2023-07-22T01:11:14;9.63;;;6.22;;
19889;SDS011;10107;51.198;6.824;2023-07-22T01:15:18;8.27;;;5.95;;
19889;SDS011;10107;51.198;6.824;2023-07-22T01:19:20;9.77;;;6.75;;
19889;SDS011;10107;51.198;6.824;2023-07-22T01:23:23;9.63;;;6.25;;
19889;SDS011;10107;51.198;6.824;2023-07-22T01:27:25;5.63;;;4.43;;
19889;SDS011;10107;51.198;6.824;2023-07-22T01:31:26;7.95;;;6.15;;
19889;SDS011;10107;51.198;6.824;2023-07-22T01:35:28;8.98;;;5.78;;
19889;SDS011;10107;51.198;6.824;2023-07-22T01:39:31;10.15;;;6.03;;
19889;SDS011;10107;51.198;6.824;2023-07-22T01:43:33;7.60;;;5.97;;
19889;SDS011;10107;51.198;6.824;2023-07-22T01:47:35;8.30;;;5.82;;
19889;SDS011;10107;51.198;6.824;2023-07-22T01:51:37;8.50;;;5.93;;
19889;SDS011;10107;51.198;6.824;2023-07-22T01:55:40;8.70;;;5.60;;
19889;SDS011;10107;51.198;6.824;2023-07-22T01:59:41;10.87;;;6.23;;
19889;SDS011;10107;51.198;6.824;2023-07-22T02:03:43;9.27;;;5.78;;
19889;SDS011;10107;51.198;6.824;2023-07-22T02:07:45;10.18;;;5.90;;
19889;SDS011;10107;51.198;6.824;2023-07-22T02:11:48;10.00;;;6.20;;
19889;SDS011;10107;51.198;6.824;2023-07-22T02:15:50;9.10;;;6.20;;
19889;SDS011;10107;51.198;6.824;2023-07-22T02:19:52;8.32;;;5.90;;
19889;SDS011;10107;51.198;6.824;2023-07-22T02:23:54;8.90;;;5.57;;
19889;SDS011;10107;51.198;6.824;2023-07-22T02:27:57;8.23;;;5.30;;
19889;SDS011;10107;51.198;6.824;2023-07-22T02:31:58;10.10;;;6.00;;
19889;SDS011;10107;51.198;6.824;2023-07-22T02:36:00;9.48;;;5.90;;
19889;SDS011;10107;51.198;6.824;2023-07-22T02:40:02;8.35;;;5.35;;
19889;SDS011;10107;51.198;6.824;2023-07-22T02:44:11;6.85;;;5.10;;
19889;SDS011;10107;51.198;6.824;2023-07-22T02:48:14;8.02;;;5.25;;
19889;SDS011;10107;51.198;6.824;2023-07-22T02:52:15;8.55;;;5.80;;
19889;SDS011;10107;51.198;6.824;2023-07-22T02:56:17;8.38;;;6.03;;
19889;SDS011;10107;51.198;6.824;2023-07-22T03:00:20;7.43;;;5.35;;
19889;SDS011;10107;51.198;6.824;2023-07-22T03:04:25;6.25;;;4.88;;
19889;SDS011;10107;51.198;6.824;2023-07-22T03:08:26;8.30;;;5.60;;
19889;SDS011;10107;51.198;6.824;2023-07-22T03:12:28;8.70;;;5.53;;
19889;SDS011;10107;51.198;6.824;2023-07-22T03:16:31;9.20;;;5.95;;
19889;SDS011;10107;51.198;6.824;2023-07-22T03:20:33;4.70;;;3.50;;
19889;SDS011;10107;51.198;6.824;2023-07-22T03:24:34;8.63;;;5.03;;
19889;SDS011;10107;51.198;6.824;2023-07-22T03:28:36;7.40;;;5.20;;
19889;SDS011;10107;51.198;6.824;2023-07-22T03:32:39;7.50;;;4.93;;
19889;SDS011;10107;51.198;6.824;2023-07-22T03:36:41;7.40;;;5.20;;
19889;SDS011;10107;51.198;6.824;2023-07-22T03:40:43;7.25;;;5.60;;
19889;SDS011;10107;51.198;6.824;2023-07-22T03:44:44;7.43;;;4.90;;
19889;SDS011;10107;51.198;6.824;2023-07-22T03:48:47;8.23;;;5.25;;
19889;SDS011;10107;51.198;6.824;2023-07-22T03:52:49;8.37;;;5.93;;
19889;SDS011;10107;51.198;6.824;2023-07-22T03:56:50;6.35;;;4.85;;
19889;SDS011;10107;51.198;6.824;2023-07-22T04:00:52;6.65;;;4.93;;
19889;SDS011;10107;51.198;6.824;2023-07-22T04:04:55;8.05;;;5.35;;
19889;SDS011;10107;51.198;6.824;2023-07-22T04:08:57;7.70;;;5.40;;
19889;SDS011;10107;51.198;6.824;2023-07-22T04:13:00;7.40;;;5.03;;
19889;SDS011;10107;51.198;6.824;2023-07-22T04:17:02;8.68;;;5.80;;
19889;SDS011;10107;51.198;6.824;2023-07-22T04:21:07;8.65;;;5.70;;
19889;SDS011;10107;51.198;6.824;2023-07-22T04:25:08;8.53;;;6.17;;
19889;SDS011;10107;51.198;6.824;2023-07-22T04:29:10;7.05;;;5.28;;
19889;SDS011;10107;51.198;6.824;2023-07-22T04:33:13;6.47;;;5.00;;
19889;SDS011;10107;51.198;6.824;2023-07-22T04:37:16;7.60;;;5.22;;
19889;SDS011;10107;51.198;6.824;2023-07-22T04:41:18;7.37;;;5.20;;
19889;SDS011;10107;51.198;6.824;2023-07-22T04:45:19;8.60;;;5.50;;
19889;SDS011;10107;51.198;6.824;2023-07-22T04:49:21;7.70;;;5.78;;
19889;SDS011;10107;51.198;6.824;2023-07-22T04:53:24;8.55;;;5.93;;
19889;SDS011;10107;51.198;6.824;2023-07-22T04:57:26;7.67;;;5.60;;
19889;SDS011;10107;51.198;6.824;2023-07-22T05:01:27;9.65;;;6.57;;
19889;SDS011;10107;51.198;6.824;2023-07-22T05:05:29;9.63;;;6.72;;
19889;SDS011;10107;51.198;6.824;2023-07-22T05:09:32;11.35;;;7.18;;
19889;SDS011;10107;51.198;6.824;2023-07-22T05:13:34;21.47;;;12.67;;
19889;SDS011;10107;51.198;6.824;2023-07-22T05:17:35;38.80;;;24.48;;
19889;SDS011;10107;51.198;6.824;2023-07-22T05:21:37;45.80;;;28.83;;
19889;SDS011;10107;51.198;6.824;2023-07-22T05:25:40;48.10;;;30.33;;
19889;SDS011;10107;51.198;6.824;2023-07-22T05:29:42;35.70;;;23.40;;
19889;SDS011;10107;51.198;6.824;2023-07-22T05:33:43;19.13;;;12.20;;
19889;SDS011;10107;51.198;6.824;2023-07-22T05:37:45;16.67;;;9.95;;
19889;SDS011;10107;51.198;6.824;2023-07-22T05:41:48;11.75;;;8.38;;
19889;SDS011;10107;51.198;6.824;2023-07-22T05:45:50;9.93;;;7.38;;
19889;SDS011;10107;51.198;6.824;2023-07-22T05:49:52;9.07;;;6.28;;
19889;SDS011;10107;51.198;6.824;2023-07-22T05:53:53;9.63;;;6.18;;
19889;SDS011;10107;51.198;6.824;2023-07-22T05:57:56;9.73;;;6.60;;
19889;SDS011;10107;51.198;6.824;2023-07-22T06:01:58;8.73;;;6.07;;
19889;SDS011;10107;51.198;6.824;2023-07-22T06:06:00;8.07;;;6.03;;
19889;SDS011;10107;51.198;6.824;2023-07-22T06:10:02;8.27;;;5.35;;
19889;SDS011;10107;51.198;6.824;2023-07-22T06:14:05;8.30;;;5.65;;
19889;SDS011;10107;51.198;6.824;2023-07-22T06:18:07;6.35;;;4.70;;
19889;SDS011;10107;51.198;6.824;2023-07-22T06:22:09;9.43;;;5.07;;
19889;SDS011;10107;51.198;6.824;2023-07-22T06:26:10;8.18;;;5.18;;
19889;SDS011;10107;51.198;6.824;2023-07-22T06:30:14;6.28;;;5.00;;
19889;SDS011;10107;51.198;6.824;2023-07-22T06:34:16;7.85;;;5.10;;
19889;SDS011;10107;51.198;6.824;2023-07-22T06:38:17;7.20;;;4.70;;
19889;SDS011;10107;51.198;6.824;2023-07-22T06:42:19;6.95;;;4.78;;
19889;SDS011;10107;51.198;6.824;2023-07-22T06:46:22;6.85;;;4.78;;
19889;SDS011;10107;51.198;6.824;2023-07-22T06:50:24;5.90;;;4.40;;
19889;SDS011;10107;51.198;6.824;2023-07-22T06:54:26;4.75;;;3.80;;
19889;SDS011;10107;51.198;6.824;2023-07-22T06:58:28;7.70;;;4.82;;
19889;SDS011;10107;51.198;6.824;2023-07-22T07:02:31;7.53;;;4.82;;
19889;SDS011;10107;51.198;6.824;2023-07-22T07:06:32;7.43;;;5.45;;
19889;SDS011;10107;51.198;6.824;2023-07-22T07:10:36;6.13;;;4.93;;
19889;SDS011;10107;51.198;6.824;2023-07-22T07:14:38;8.85;;;6.30;;
19889;SDS011;10107;51.198;6.824;2023-07-22T07:18:41;9.43;;;5.45;;
19889;SDS011;10107;51.198;6.824;2023-07-22T07:22:43;5.20;;;4.65;;
19889;SDS011;10107;51.198;6.824;2023-07-22T07:26:45;8.30;;;5.35;;
19889;SDS011;10107;51.198;6.824;2023-07-22T07:30:47;6.63;;;5.28;;
19889;SDS011;10107;51.198;6.824;2023-07-22T07:38:53;6.32;;;4.78;;
19889;SDS011;10107;51.198;6.824;2023-07-22T07:42:55;7.07;;;5.45;;
19889;SDS011;10107;51.198;6.824;2023-07-22T07:46:57;9.63;;;5.97;;
19889;SDS011;10107;51.198;6.824;2023-07-22T07:51:02;8.00;;;5.57;;
19889;SDS011;10107;51.198;6.824;2023-07-22T07:55:05;7.25;;;5.65;;
19889;SDS011;10107;51.198;6.824;2023-07-22T07:59:07;8.90;;;5.63;;
19889;SDS011;10107;51.198;6.824;2023-07-22T08:03:09;9.55;;;6.45;;
19889;SDS011;10107;51.198;6.824;2023-07-22T08:07:14;10.23;;;6.05;;
19889;SDS011;10107;51.198;6.824;2023-07-22T08:11:16;12.15;;;7.07;;
19889;SDS011;10107;51.198;6.824;2023-07-22T08:15:18;9.02;;;5.57;;
19889;SDS011;10107;51.198;6.824;2023-07-22T08:19:20;8.98;;;5.75;;
19889;SDS011;10107;51.198;6.824;2023-07-22T08:23:23;8.10;;;5.85;;
19889;SDS011;10107;51.198;6.824;2023-07-22T08:27:25;8.40;;;6.22;;
19889;SDS011;10107;51.198;6.824;2023-07-22T08:31:26;8.38;;;5.50;;
19889;SDS011;10107;51.198;6.824;2023-07-22T08:35:28;7.72;;;5.35;;
19889;SDS011;10107;51.198;6.824;2023-07-22T08:39:31;8.57;;;5.68;;
19889;SDS011;10107;51.198;6.824;2023-07-22T08:43:34;8.85;;;5.40;;
19889;SDS011;10107;51.198;6.824;2023-07-22T08:47:38;7.28;;;5.28;;
19889;SDS011;10107;51.198;6.824;2023-07-22T08:51:46;6.65;;;4.90;;
19889;SDS011;10107;51.198;6.824;2023-07-22T08:55:50;6.10;;;4.43;;
19889;SDS011;10107;51.198;6.824;2023-07-22T08:59:52;6.35;;;5.00;;
19889;SDS011;10107;51.198;6.824;2023-07-22T09:03:55;7.63;;;4.65;;
19889;SDS011;10107;51.198;6.824;2023-07-22T09:07:58;7.03;;;4.50;;
19889;SDS011;10107;51.198;6.824;2023-07-22T09:12:02;6.60;;;4.35;;
19889;SDS011;10107;51.198;6.824;2023-07-22T09:16:05;5.85;;;4.35;;
19889;SDS011;10107;51.198;6.824;2023-07-22T09:20:08;6.60;;;4.85;;
19889;SDS011;10107;51.198;6.824;2023-07-22T09:24:21;5.65;;;4.18;;
19889;SDS011;10107;51.198;6.824;2023-07-22T09:28:26;5.88;;;4.20;;
19889;SDS011;10107;51.198;6.824;2023-07-22T09:32:34;4.80;;;3.85;;
19889;SDS011;10107;51.198;6.824;2023-07-22T09:36:45;5.50;;;4.00;;
19889;SDS011;10107;51.198;6.824;2023-07-22T09:40:51;4.80;;;3.58;;
19889;SDS011;10107;51.198;6.824;2023-07-22T09:44:55;3.33;;;3.03;;
19889;SDS011;10107;51.198;6.824;2023-07-22T09:48:57;3.80;;;2.70;;
19889;SDS011;10107;51.198;6.824;2023-07-22T09:52:59;3.38;;;2.65;;
19889;SDS011;10107;51.198;6.824;2023-07-22T09:57:01;5.55;;;2.83;;
19889;SDS011;10107;51.198;6.824;2023-07-22T10:01:06;3.58;;;2.30;;
19889;SDS011;10107;51.198;6.824;2023-07-22T10:05:11;2.60;;;2.40;;
19889;SDS011;10107;51.198;6.824;2023-07-22T10:09:14;4.00;;;2.45;;
19889;SDS011;10107;51.198;6.824;2023-07-22T10:13:17;4.03;;;2.83;;
19889;SDS011;10107;51.198;6.824;2023-07-22T10:17:20;3.67;;;2.67;;
19889;SDS011;10107;51.198;6.824;2023-07-22T10:21:23;3.92;;;2.47;;
19889;SDS011;10107;51.198;6.824;2023-07-22T10:25:25;4.43;;;2.77;;
19889;SDS011;10107;51.198;6.824;2023-07-22T10:29:27;3.30;;;2.60;;
19889;SDS011;10107;51.198;6.824;2023-07-22T10:33:31;3.55;;;2.55;;
19889;SDS011;10107;51.198;6.824;2023-07-22T10:41:34;3.63;;;2.38;;
19889;SDS011;10107;51.198;6.824;2023-07-22T10:45:40;3.72;;;2.70;;
19889;SDS011;10107;51.198;6.824;2023-07-22T10:49:44;4.30;;;2.50;;
19889;SDS011;10107;51.198;6.824;2023-07-22T10:53:49;3.95;;;2.70;;
19889;SDS011;10107;51.198;6.824;2023-07-22T10:57:54;4.53;;;2.50;;
19889;SDS011;10107;51.198;6.824;2023-07-22T11:01:56;4.72;;;2.38;;
19889;SDS011;10107;51.198;6.824;2023-07-22T11:05:59;4.07;;;2.10;;
19889;SDS011;10107;51.198;6.824;2023-07-22T11:14:13;4.90;;;2.33;;
19889;SDS011;10107;51.198;6.824;2023-07-22T11:22:18;4.13;;;2.15;;
19889;SDS011;10107;51.198;6.824;2023-07-22T11:26:20;3.42;;;2.00;;
19889;SDS011;10107;51.198;6.824;2023-07-22T11:30:23;3.80;;;2.10;;
19889;SDS011;10107;51.198;6.824;2023-07-22T11:34:25;2.80;;;2.00;;
19889;SDS011;10107;51.198;6.824;2023-07-22T11:38:28;3.37;;;1.87;;
19889;SDS011;10107;51.198;6.824;2023-07-22T11:42:30;3.40;;;2.30;;
19889;SDS011;10107;51.198;6.824;2023-07-22T11:46:35;2.65;;;2.30;;
19889;SDS011;10107;51.198;6.824;2023-07-22T11:50:37;3.27;;;2.30;;
19889;SDS011;10107;51.198;6.824;2023-07-22T11:54:41;3.40;;;2.30;;
19889;SDS011;10107;51.198;6.824;2023-07-22T11:58:43;4.05;;;2.50;;
19889;SDS011;10107;51.198;6.824;2023-07-22T12:02:49;3.58;;;2.25;;
19889;SDS011;10107;51.198;6.824;2023-07-22T12:06:56;2.63;;;2.22;;
19889;SDS011;10107;51.198;6.824;2023-07-22T12:11:00;4.55;;;2.60;;
19889;SDS011;10107;51.198;6.824;2023-07-22T12:15:02;3.67;;;2.25;;
19889;SDS011;10107;51.198;6.824;2023-07-22T12:19:05;3.75;;;2.45;;
19889;SDS011;10107;51.198;6.824;2023-07-22T12:23:08;4.47;;;2.67;;
19889;SDS011;10107;51.198;6.824;2023-07-22T12:27:11;4.88;;;2.90;;
19889;SDS011;10107;51.198;6.824;2023-07-22T12:31:12;3.95;;;2.63;;
19889;SDS011;10107;51.198;6.824;2023-07-22T12:35:14;2.95;;;2.50;;
19889;SDS011;10107;51.198;6.824;2023-07-22T12:39:16;4.80;;;2.55;;
19889;SDS011;10107;51.198;6.824;2023-07-22T12:43:19;3.25;;;2.53;;
19889;SDS011;10107;51.198;6.824;2023-07-22T12:47:21;4.18;;;2.85;;
19889;SDS011;10107;51.198;6.824;2023-07-22T12:51:22;3.60;;;2.60;;
19889;SDS011;10107;51.198;6.824;2023-07-22T12:55:24;3.03;;;2.38;;
19889;SDS011;10107;51.198;6.824;2023-07-22T12:59:27;6.20;;;2.90;;
19889;SDS011;10107;51.198;6.824;2023-07-22T13:03:29;3.50;;;2.38;;
19889;SDS011;10107;51.198;6.824;2023-07-22T13:07:31;3.70;;;2.83;;
19889;SDS011;10107;51.198;6.824;2023-07-22T13:11:32;4.15;;;2.38;;
19889;SDS011;10107;51.198;6.824;2023-07-22T13:15:35;2.35;;;2.10;;
19889;SDS011;10107;51.198;6.824;2023-07-22T13:19:38;3.28;;;2.50;;
19889;SDS011;10107;51.198;6.824;2023-07-22T13:23:40;3.05;;;2.10;;
19889;SDS011;10107;51.198;6.824;2023-07-22T13:27:41;2.88;;;2.00;;
19889;SDS011;10107;51.198;6.824;2023-07-22T13:31:44;2.90;;;2.30;;
19889;SDS011;10107;51.198;6.824;2023-07-22T13:35:46;2.80;;;2.17;;
19889;SDS011;10107;51.198;6.824;2023-07-22T13:39:48;3.03;;;2.60;;
19889;SDS011;10107;51.198;6.824;2023-07-22T13:43:50;3.67;;;2.70;;
19889;SDS011;10107;51.198;6.824;2023-07-22T13:47:53;2.88;;;2.50;;
19889;SDS011;10107;51.198;6.824;2023-07-22T13:55:56;3.38;;;2.40;;
19889;SDS011;10107;51.198;6.824;2023-07-22T13:59:57;3.85;;;2.83;;
19889;SDS011;10107;51.198;6.824;2023-07-22T14:04:00;5.90;;;2.83;;
19889;SDS011;10107;51.198;6.824;2023-07-22T14:08:02;3.58;;;2.65;;
19889;SDS011;10107;51.198;6.824;2023-07-22T14:12:04;3.40;;;2.60;;
19889;SDS011;10107;51.198;6.824;2023-07-22T14:16:07;4.07;;;2.90;;
19889;SDS011;10107;51.198;6.824;2023-07-22T14:20:10;3.28;;;2.80;;
19889;SDS011;10107;51.198;6.824;2023-07-22T14:24:12;4.68;;;3.00;;
19889;SDS011;10107;51.198;6.824;2023-07-22T14:28:14;5.10;;;3.42;;
19889;SDS011;10107;51.198;6.824;2023-07-22T14:32:16;5.60;;;3.40;;
19889;SDS011;10107;51.198;6.824;2023-07-22T14:36:19;6.13;;;3.17;;
19889;SDS011;10107;51.198;6.824;2023-07-22T14:40:21;5.47;;;2.97;;
19889;SDS011;10107;51.198;6.824;2023-07-22T14:44:23;3.70;;;2.75;;
19889;SDS011;10107;51.198;6.824;2023-07-22T14:48:24;4.70;;;3.10;;
19889;SDS011;10107;51.198;6.824;2023-07-22T14:52:27;4.57;;;3.05;;
19889;SDS011;10107;51.198;6.824;2023-07-22T14:56:29;5.18;;;3.05;;
19889;SDS011;10107;51.198;6.824;2023-07-22T15:00:31;3.42;;;3.10;;
19889;SDS011;10107;51.198;6.824;2023-07-22T15:04:32;6.15;;;3.25;;
19889;SDS011;10107;51.198;6.824;2023-07-22T15:08:35;4.70;;;3.22;;
19889;SDS011;10107;51.198;6.824;2023-07-22T15:12:37;4.47;;;3.00;;
19889;SDS011;10107;51.198;6.824;2023-07-22T15:16:38;4.05;;;2.40;;
19889;SDS011;10107;51.198;6.824;2023-07-22T15:20:41;4.15;;;2.88;;
19889;SDS011;10107;51.198;6.824;2023-07-22T15:24:44;5.25;;;2.60;;
19889;SDS011;10107;51.198;6.824;2023-07-22T15:28:45;3.33;;;2.38;;
19889;SDS011;10107;51.198;6.824;2023-07-22T15:32:48;4.30;;;3.00;;
19889;SDS011;10107;51.198;6.824;2023-07-22T15:36:51;6.43;;;3.10;;
19889;SDS011;10107;51.198;6.824;2023-07-22T15:40:54;5.72;;;2.60;;
19889;SDS011;10107;51.198;6.824;2023-07-22T15:44:55;4.53;;;2.17;;
19889;SDS011;10107;51.198;6.824;2023-07-22T15:48:57;3.47;;;2.20;;
19889;SDS011;10107;51.198;6.824;2023-07-22T15:52:59;3.55;;;2.47;;
19889;SDS011;10107;51.198;6.824;2023-07-22T15:57:02;4.55;;;2.70;;
19889;SDS011;10107;51.198;6.824;2023-07-22T16:01:03;3.22;;;2.13;;
19889;SDS011;10107;51.198;6.824;2023-07-22T16:05:05;2.83;;;2.15;;
19889;SDS011;10107;51.198;6.824;2023-07-22T16:09:07;5.70;;;2.33;;
19889;SDS011;10107;51.198;6.824;2023-07-22T16:13:10;2.65;;;2.17;;
19889;SDS011;10107;51.198;6.824;2023-07-22T16:17:12;3.28;;;2.50;;
19889;SDS011;10107;51.198;6.824;2023-07-22T16:21:14;4.10;;;2.70;;
19889;SDS011;10107;51.198;6.824;2023-07-22T16:25:16;4.70;;;2.95;;
19889;SDS011;10107;51.198;6.824;2023-07-22T16:29:19;3.55;;;2.65;;
19889;SDS011;10107;51.198;6.824;2023-07-22T16:33:20;6.05;;;3.05;;
19889;SDS011;10107;51.198;6.824;2023-07-22T16:37:22;4.85;;;2.97;;
19889;SDS011;10107;51.198;6.824;2023-07-22T16:41:24;5.05;;;3.20;;
19889;SDS011;10107;51.198;6.824;2023-07-22T16:45:27;6.55;;;3.95;;
19889;SDS011;10107;51.198;6.824;2023-07-22T16:49:29;5.47;;;3.22;;
19889;SDS011;10107;51.198;6.824;2023-07-22T16:53:31;4.30;;;3.30;;
19889;SDS011;10107;51.198;6.824;2023-07-22T16:57:33;6.80;;;3.55;;
19889;SDS011;10107;51.198;6.824;2023-07-22T17:01:37;7.78;;;4.07;;
19889;SDS011;10107;51.198;6.824;2023-07-22T17:05:39;5.00;;;3.55;;
19889;SDS011;10107;51.198;6.824;2023-07-22T17:09:40;6.60;;;3.97;;
19889;SDS011;10107;51.198;6.824;2023-07-22T17:13:42;5.07;;;3.45;;
19889;SDS011;10107;51.198;6.824;2023-07-22T17:17:45;6.70;;;3.60;;
19889;SDS011;10107;51.198;6.824;2023-07-22T17:21:47;5.70;;;3.38;;
19889;SDS011;10107;51.198;6.824;2023-07-22T17:25:49;5.93;;;3.13;;
19889;SDS011;10107;51.198;6.824;2023-07-22T17:29:54;4.93;;;3.67;;
19889;SDS011;10107;51.198;6.824;2023-07-22T17:33:57;4.05;;;2.70;;
19889;SDS011;10107;51.198;6.824;2023-07-22T17:37:59;4.88;;;3.20;;
19889;SDS011;10107;51.198;6.824;2023-07-22T17:42:00;4.72;;;3.00;;
19889;SDS011;10107;51.198;6.824;2023-07-22T17:46:04;4.50;;;3.22;;
19889;SDS011;10107;51.198;6.824;2023-07-22T17:50:07;3.97;;;3.10;;
19889;SDS011;10107;51.198;6.824;2023-07-22T17:58:10;3.15;;;2.50;;
19889;SDS011;10107;51.198;6.824;2023-07-22T18:02:12;3.42;;;2.40;;
19889;SDS011;10107;51.198;6.824;2023-07-22T18:06:16;2.85;;;2.45;;
19889;SDS011;10107;51.198;6.824;2023-07-22T18:10:17;4.13;;;2.60;;
19889;SDS011;10107;51.198;6.824;2023-07-22T18:14:19;3.53;;;2.58;;
19889;SDS011;10107;51.198;6.824;2023-07-22T18:18:20;3.95;;;2.85;;
19889;SDS011;10107;51.198;6.824;2023-07-22T18:22:23;3.78;;;2.85;;
19889;SDS011;10107;51.198;6.824;2023-07-22T18:26:25;3.17;;;2.50;;
19889;SDS011;10107;51.198;6.824;2023-07-22T18:30:27;3.15;;;2.53;;
19889;SDS011;10107;51.198;6.824;2023-07-22T18:34:28;3.45;;;2.38;;
19889;SDS011;10107;51.198;6.824;2023-07-22T18:38:31;3.40;;;2.45;;
19889;SDS011;10107;51.198;6.824;2023-07-22T18:42:33;2.88;;;2.53;;
19889;SDS011;10107;51.198;6.824;2023-07-22T18:46:35;2.92;;;2.38;;
19889;SDS011;10107;51.198;6.824;2023-07-22T18:50:37;3.83;;;2.33;;
19889;SDS011;10107;51.198;6.824;2023-07-22T18:54:40;4.13;;;2.40;;
19889;SDS011;10107;51.198;6.824;2023-07-22T18:58:43;3.08;;;2.40;;
19889;SDS011;10107;51.198;6.824;2023-07-22T19:02:45;3.88;;;2.60;;
19889;SDS011;10107;51.198;6.824;2023-07-22T19:06:47;3.63;;;2.50;;
19889;SDS011;10107;51.198;6.824;2023-07-22T19:10:53;4.28;;;2.42;;
19889;SDS011;10107;51.198;6.824;2023-07-22T19:14:55;3.60;;;2.60;;
19889;SDS011;10107;51.198;6.824;2023-07-22T19:18:56;5.60;;;2.40;;
19889;SDS011;10107;51.198;6.824;2023-07-22T19:22:58;3.55;;;2.13;;
19889;SDS011;10107;51.198;6.824;2023-07-22T19:27:01;4.05;;;2.33;;
19889;SDS011;10107;51.198;6.824;2023-07-22T19:31:03;4.43;;;2.30;;
19889;SDS011;10107;51.198;6.824;2023-07-22T19:35:05;3.78;;;2.30;;
19889;SDS011;10107;51.198;6.824;2023-07-22T19:39:07;4.80;;;2.40;;
19889;SDS011;10107;51.198;6.824;2023-07-22T19:43:10;3.70;;;2.40;;
19889;SDS011;10107;51.198;6.824;2023-07-22T19:47:12;2.90;;;1.93;;
19889;SDS011;10107;51.198;6.824;2023-07-22T19:51:14;5.40;;;2.60;;
19889;SDS011;10107;51.198;6.824;2023-07-22T19:55:15;3.67;;;2.20;;
19889;SDS011;10107;51.198;6.824;2023-07-22T19:59:18;3.38;;;2.25;;
19889;SDS011;10107;51.198;6.824;2023-07-22T20:03:20;3.80;;;2.03;;
19889;SDS011;10107;51.198;6.824;2023-07-22T20:07:22;3.35;;;2.15;;
19889;SDS011;10107;51.198;6.824;2023-07-22T20:11:23;3.92;;;2.35;;
19889;SDS011;10107;51.198;6.824;2023-07-22T20:15:27;4.22;;;2.40;;
19889;SDS011;10107;51.198;6.824;2023-07-22T20:19:28;3.40;;;2.77;;
19889;SDS011;10107;51.198;6.824;2023-07-22T20:23:30;4.18;;;2.33;;
19889;SDS011;10107;51.198;6.824;2023-07-22T20:27:32;3.40;;;2.90;;
19889;SDS011;10107;51.198;6.824;2023-07-22T20:31:39;4.65;;;2.83;;
19889;SDS011;10107;51.198;6.824;2023-07-22T20:35:40;3.67;;;2.03;;
19889;SDS011;10107;51.198;6.824;2023-07-22T20:39:42;2.67;;;2.28;;
19889;SDS011;10107;51.198;6.824;2023-07-22T20:43:44;3.53;;;2.40;;
19889;SDS011;10107;51.198;6.824;2023-07-22T20:47:47;3.47;;;2.40;;
19889;SDS011;10107;51.198;6.824;2023-07-22T20:51:48;3.53;;;2.65;;
19889;SDS011;10107;51.198;6.824;2023-07-22T20:55:50;3.13;;;2.35;;
19889;SDS011;10107;51.198;6.824;2023-07-22T20:59:54;3.47;;;2.30;;
19889;SDS011;10107;51.198;6.824;2023-07-22T21:03:58;3.42;;;2.13;;
19889;SDS011;10107;51.198;6.824;2023-07-22T21:08:00;4.20;;;2.10;;
19889;SDS011;10107;51.198;6.824;2023-07-22T21:12:01;3.22;;;2.60;;
19889;SDS011;10107;51.198;6.824;2023-07-22T21:16:05;3.17;;;2.47;;
19889;SDS011;10107;51.198;6.824;2023-07-22T21:20:08;2.65;;;2.25;;
19889;SDS011;10107;51.198;6.824;2023-07-22T21:24:11;4.03;;;2.28;;
19889;SDS011;10107;51.198;6.824;2023-07-22T21:28:13;4.00;;;2.58;;
19889;SDS011;10107;51.198;6.824;2023-07-22T21:32:14;3.42;;;2.22;;
19889;SDS011;10107;51.198;6.824;2023-07-22T21:36:20;4.32;;;2.47;;
19889;SDS011;10107;51.198;6.824;2023-07-22T21:40:22;4.22;;;2.45;;
19889;SDS011;10107;51.198;6.824;2023-07-22T21:44:23;3.78;;;2.78;;
19889;SDS011;10107;51.198;6.824;2023-07-22T21:48:25;3.80;;;2.65;;
19889;SDS011;10107;51.198;6.824;2023-07-22T21:52:28;4.10;;;2.60;;
19889;SDS011;10107;51.198;6.824;2023-07-22T21:56:30;4.03;;;2.70;;
19889;SDS011;10107;51.198;6.824;2023-07-22T22:00:31;3.72;;;2.67;;
19889;SDS011;10107;51.198;6.824;2023-07-22T22:04:33;4.03;;;2.67;;
19889;SDS011;10107;51.198;6.824;2023-07-22T22:08:36;4.35;;;2.72;;
19889;SDS011;10107;51.198;6.824;2023-07-22T22:12:38;4.03;;;2.47;;
19889;SDS011;10107;51.198;6.824;2023-07-22T22:16:40;3.78;;;2.70;;
19889;SDS011;10107;51.198;6.824;2023-07-22T22:20:41;5.07;;;3.20;;
19889;SDS011;10107;51.198;6.824;2023-07-22T22:24:44;3.55;;;2.60;;
19889;SDS011;10107;51.198;6.824;2023-07-22T22:28:46;3.73;;;2.17;;
19889;SDS011;10107;51.198;6.824;2023-07-22T22:32:47;5.05;;;3.10;;
19889;SDS011;10107;51.198;6.824;2023-07-22T22:36:49;3.95;;;2.95;;
19889;SDS011;10107;51.198;6.824;2023-07-22T22:40:52;3.78;;;2.72;;
19889;SDS011;10107;51.198;6.824;2023-07-22T22:44:54;4.73;;;3.90;;
19889;SDS011;10107;51.198;6.824;2023-07-22T22:48:56;5.30;;;3.50;;
19889;SDS011;10107;51.198;6.824;2023-07-22T22:52:58;5.75;;;3.28;;
19889;SDS011;10107;51.198;6.824;2023-07-22T22:57:01;6.72;;;3.22;;
19889;SDS011;10107;51.198;6.824;2023-07-22T23:01:04;3.72;;;2.67;;
19889;SDS011;10107;51.198;6.824;2023-07-22T23:05:12;5.47;;;3.20;;
19889;SDS011;10107;51.198;6.824;2023-07-22T23:09:14;4.70;;;3.20;;
19889;SDS011;10107;51.198;6.824;2023-07-22T23:13:17;4.18;;;3.05;;
19889;SDS011;10107;51.198;6.824;2023-07-22T23:17:19;4.80;;;3.30;;
19889;SDS011;10107;51.198;6.824;2023-07-22T23:21:21;4.30;;;3.45;;
19889;SDS011;10107;51.198;6.824;2023-07-22T23:25:23;6.68;;;3.72;;
19889;SDS011;10107;51.198;6.824;2023-07-22T23:29:26;5.35;;;4.07;;
19889;SDS011;10107;51.198;6.824;2023-07-22T23:33:27;5.00;;;3.73;;
19889;SDS011;10107;51.198;6.824;2023-07-22T23:41:32;6.47;;;3.80;;
19889;SDS011;10107;51.198;6.824;2023-07-22T23:45:36;6.00;;;4.20;;
19889;SDS011;10107;51.198;6.824;2023-07-22T23:49:37;8.43;;;4.60;;
19889;SDS011;10107;51.198;6.824;2023-07-22T23:53:39;5.72;;;4.47;;
19889;SDS011;10107;51.198;6.824;2023-07-22T23:57:41;6.05;;;4.43;;
